Terminal Aerodrome Forecast
Issued by NWS

Home | Current Version | Previous Version | Text Only | Print | Product List | Glossary On
Versions: 1 2 3 4 5 6 7 8 9 10 11 12 13 14 15
006
FTUS46 KMTR 251122
TAFOAK
TAF
KOAK 251122Z 2512/2618 11005KT P6SM -SHRA FEW030 BKN050
     FM251500 11005KT P6SM FEW030 SCT050 BKN200
     FM251800 15005KT P6SM VCSH FEW030 BKN100
     FM252100 34006KT P6SM VCSH FEW030 BKN100
     FM260200 09007KT P6SM FEW030 SCT080 OVC150
     FM260800 02005KT P6SM FEW050
     FM261200 00000KT P6SM FEW050=

USA.gov is the U.S. government's official web portal to all federal, state and local government web resources and services.